sensor_id;sensor_type;location;lat;lon;timestamp;P1;durP1;ratioP1;P2;durP2;ratioP2
20421;SDS011;10370;53.102;18.034;2023-05-24T00:03:11;21.05;;;15.00;;
20421;SDS011;10370;53.102;18.034;2023-05-24T00:08:37;28.67;;;16.08;;
20421;SDS011;10370;53.102;18.034;2023-05-24T00:14:01;21.45;;;15.57;;
20421;SDS011;10370;53.102;18.034;2023-05-24T00:19:22;23.92;;;16.48;;
20421;SDS011;10370;53.102;18.034;2023-05-24T00:24:50;22.52;;;15.75;;
20421;SDS011;10370;53.102;18.034;2023-05-24T00:30:16;28.75;;;16.67;;
20421;SDS011;10370;53.102;18.034;2023-05-24T00:35:38;26.40;;;17.05;;
20421;SDS011;10370;53.102;18.034;2023-05-24T00:41:05;24.83;;;17.10;;
20421;SDS011;10370;53.102;18.034;2023-05-24T00:46:33;21.98;;;16.63;;
20421;SDS011;10370;53.102;18.034;2023-05-24T00:51:58;26.13;;;16.35;;
20421;SDS011;10370;53.102;18.034;2023-05-24T00:57:27;23.30;;;16.27;;
20421;SDS011;10370;53.102;18.034;2023-05-24T01:02:53;25.45;;;16.35;;
20421;SDS011;10370;53.102;18.034;2023-05-24T01:08:39;23.05;;;15.77;;
20421;SDS011;10370;53.102;18.034;2023-05-24T01:19:56;28.27;;;16.10;;
20421;SDS011;10370;53.102;18.034;2023-05-24T01:31:56;24.40;;;16.20;;
20421;SDS011;10370;53.102;18.034;2023-05-24T01:37:37;20.45;;;15.60;;
20421;SDS011;10370;53.102;18.034;2023-05-24T01:43:29;24.98;;;15.38;;
20421;SDS011;10370;53.102;18.034;2023-05-24T01:49:21;20.58;;;15.48;;
20421;SDS011;10370;53.102;18.034;2023-05-24T01:54:59;24.17;;;15.50;;
20421;SDS011;10370;53.102;18.034;2023-05-24T02:00:36;21.45;;;15.85;;
20421;SDS011;10370;53.102;18.034;2023-05-24T02:06:34;20.40;;;15.55;;
20421;SDS011;10370;53.102;18.034;2023-05-24T02:11:59;19.25;;;14.80;;
20421;SDS011;10370;53.102;18.034;2023-05-24T02:17:28;23.45;;;14.52;;
20421;SDS011;10370;53.102;18.034;2023-05-24T02:23:06;25.00;;;15.45;;
20421;SDS011;10370;53.102;18.034;2023-05-24T02:28:51;24.00;;;15.73;;
20421;SDS011;10370;53.102;18.034;2023-05-24T02:34:16;22.48;;;15.23;;
20421;SDS011;10370;53.102;18.034;2023-05-24T02:39:40;21.45;;;15.13;;
20421;SDS011;10370;53.102;18.034;2023-05-24T02:45:07;21.13;;;14.20;;
20421;SDS011;10370;53.102;18.034;2023-05-24T02:51:06;18.27;;;13.98;;
20421;SDS011;10370;53.102;18.034;2023-05-24T02:56:34;20.38;;;14.88;;
20421;SDS011;10370;53.102;18.034;2023-05-24T03:02:04;21.08;;;14.77;;
20421;SDS011;10370;53.102;18.034;2023-05-24T03:07:46;20.52;;;15.52;;
20421;SDS011;10370;53.102;18.034;2023-05-24T03:13:34;22.60;;;15.18;;
20421;SDS011;10370;53.102;18.034;2023-05-24T03:19:31;24.63;;;15.65;;
20421;SDS011;10370;53.102;18.034;2023-05-24T03:25:15;27.52;;;17.25;;
20421;SDS011;10370;53.102;18.034;2023-05-24T03:30:50;24.48;;;17.17;;
20421;SDS011;10370;53.102;18.034;2023-05-24T03:36:21;24.20;;;17.35;;
20421;SDS011;10370;53.102;18.034;2023-05-24T03:42:05;26.77;;;17.52;;
20421;SDS011;10370;53.102;18.034;2023-05-24T03:48:00;25.65;;;18.15;;
20421;SDS011;10370;53.102;18.034;2023-05-24T03:53:48;26.50;;;18.35;;
20421;SDS011;10370;53.102;18.034;2023-05-24T03:59:16;26.13;;;18.77;;
20421;SDS011;10370;53.102;18.034;2023-05-24T04:04:48;30.42;;;20.20;;
20421;SDS011;10370;53.102;18.034;2023-05-24T04:10:45;32.17;;;20.95;;
20421;SDS011;10370;53.102;18.034;2023-05-24T04:16:45;31.67;;;20.90;;
20421;SDS011;10370;53.102;18.034;2023-05-24T04:22:30;31.13;;;22.80;;
20421;SDS011;10370;53.102;18.034;2023-05-24T04:28:08;42.40;;;22.42;;
20421;SDS011;10370;53.102;18.034;2023-05-24T04:34:06;32.38;;;21.55;;
20421;SDS011;10370;53.102;18.034;2023-05-24T04:40:44;37.92;;;22.00;;
20421;SDS011;10370;53.102;18.034;2023-05-24T04:47:42;35.78;;;23.38;;
20421;SDS011;10370;53.102;18.034;2023-05-24T04:53:36;35.92;;;22.85;;
20421;SDS011;10370;53.102;18.034;2023-05-24T04:59:28;35.25;;;23.13;;
20421;SDS011;10370;53.102;18.034;2023-05-24T05:05:30;36.83;;;24.30;;
20421;SDS011;10370;53.102;18.034;2023-05-24T05:11:30;31.60;;;21.92;;
20421;SDS011;10370;53.102;18.034;2023-05-24T05:17:33;35.38;;;21.80;;
20421;SDS011;10370;53.102;18.034;2023-05-24T05:23:29;32.70;;;22.20;;
20421;SDS011;10370;53.102;18.034;2023-05-24T05:29:34;31.25;;;21.30;;
20421;SDS011;10370;53.102;18.034;2023-05-24T05:35:44;33.38;;;22.85;;
20421;SDS011;10370;53.102;18.034;2023-05-24T07:55:25;18.65;;;14.93;;
20421;SDS011;10370;53.102;18.034;2023-05-24T08:00:48;20.08;;;14.57;;
20421;SDS011;10370;53.102;18.034;2023-05-24T08:06:11;19.58;;;13.90;;
20421;SDS011;10370;53.102;18.034;2023-05-24T08:11:36;18.48;;;13.63;;
20421;SDS011;10370;53.102;18.034;2023-05-24T08:17:01;17.67;;;14.02;;
20421;SDS011;10370;53.102;18.034;2023-05-24T08:22:26;19.20;;;13.48;;
20421;SDS011;10370;53.102;18.034;2023-05-24T08:27:50;17.63;;;13.40;;
20421;SDS011;10370;53.102;18.034;2023-05-24T08:33:11;18.60;;;13.75;;
20421;SDS011;10370;53.102;18.034;2023-05-24T08:38:34;16.85;;;13.05;;
20421;SDS011;10370;53.102;18.034;2023-05-24T08:43:59;18.23;;;14.07;;
20421;SDS011;10370;53.102;18.034;2023-05-24T08:49:21;17.80;;;13.52;;
20421;SDS011;10370;53.102;18.034;2023-05-24T08:54:45;19.48;;;14.68;;
20421;SDS011;10370;53.102;18.034;2023-05-24T09:00:11;18.45;;;13.48;;
20421;SDS011;10370;53.102;18.034;2023-05-24T09:05:37;20.73;;;13.63;;
20421;SDS011;10370;53.102;18.034;2023-05-24T09:11:03;18.75;;;13.57;;
20421;SDS011;10370;53.102;18.034;2023-05-24T09:16:30;17.77;;;13.55;;
20421;SDS011;10370;53.102;18.034;2023-05-24T09:21:53;16.25;;;13.45;;
20421;SDS011;10370;53.102;18.034;2023-05-24T09:27:20;20.10;;;13.85;;
20421;SDS011;10370;53.102;18.034;2023-05-24T09:32:52;18.58;;;13.73;;
20421;SDS011;10370;53.102;18.034;2023-05-24T09:38:20;18.88;;;14.85;;
20421;SDS011;10370;53.102;18.034;2023-05-24T09:43:47;18.40;;;14.68;;
20421;SDS011;10370;53.102;18.034;2023-05-24T09:49:10;21.13;;;15.25;;
20421;SDS011;10370;53.102;18.034;2023-05-24T09:54:34;17.45;;;14.60;;
20421;SDS011;10370;53.102;18.034;2023-05-24T09:59:56;19.45;;;14.38;;
20421;SDS011;10370;53.102;18.034;2023-05-24T10:05:18;18.38;;;15.07;;
20421;SDS011;10370;53.102;18.034;2023-05-24T10:10:40;20.25;;;15.65;;
20421;SDS011;10370;53.102;18.034;2023-05-24T10:16:02;18.40;;;14.27;;
20421;SDS011;10370;53.102;18.034;2023-05-24T10:21:25;19.08;;;14.85;;
20421;SDS011;10370;53.102;18.034;2023-05-24T10:26:51;17.58;;;14.38;;
20421;SDS011;10370;53.102;18.034;2023-05-24T10:32:13;16.95;;;13.60;;
20421;SDS011;10370;53.102;18.034;2023-05-24T10:37:38;18.42;;;14.93;;
20421;SDS011;10370;53.102;18.034;2023-05-24T10:43:03;20.08;;;13.85;;
20421;SDS011;10370;53.102;18.034;2023-05-24T10:54:09;19.17;;;14.10;;
20421;SDS011;10370;53.102;18.034;2023-05-24T10:59:44;22.38;;;15.00;;
20421;SDS011;10370;53.102;18.034;2023-05-24T11:05:05;17.40;;;14.20;;
20421;SDS011;10370;53.102;18.034;2023-05-24T11:10:29;17.92;;;14.73;;
20421;SDS011;10370;53.102;18.034;2023-05-24T11:15:51;24.48;;;16.55;;
20421;SDS011;10370;53.102;18.034;2023-05-24T11:21:15;18.52;;;15.77;;
20421;SDS011;10370;53.102;18.034;2023-05-24T11:26:37;17.70;;;14.98;;
20421;SDS011;10370;53.102;18.034;2023-05-24T11:32:01;22.60;;;15.95;;
20421;SDS011;10370;53.102;18.034;2023-05-24T11:37:26;22.50;;;15.70;;
20421;SDS011;10370;53.102;18.034;2023-05-24T11:43:07;23.35;;;14.10;;
20421;SDS011;10370;53.102;18.034;2023-05-24T11:48:28;19.20;;;14.88;;
20421;SDS011;10370;53.102;18.034;2023-05-24T11:53:52;16.85;;;14.07;;
20421;SDS011;10370;53.102;18.034;2023-05-24T11:59:14;17.50;;;14.73;;
20421;SDS011;10370;53.102;18.034;2023-05-24T12:04:48;21.33;;;15.18;;
20421;SDS011;10370;53.102;18.034;2023-05-24T12:10:12;20.90;;;15.55;;
20421;SDS011;10370;53.102;18.034;2023-05-24T12:15:32;23.42;;;15.25;;
20421;SDS011;10370;53.102;18.034;2023-05-24T12:20:55;19.83;;;15.27;;
20421;SDS011;10370;53.102;18.034;2023-05-24T12:26:20;18.27;;;15.23;;
20421;SDS011;10370;53.102;18.034;2023-05-24T12:31:46;20.60;;;15.10;;
20421;SDS011;10370;53.102;18.034;2023-05-24T12:37:12;21.65;;;15.38;;
20421;SDS011;10370;53.102;18.034;2023-05-24T12:42:36;17.10;;;15.30;;
20421;SDS011;10370;53.102;18.034;2023-05-24T12:48:00;19.73;;;15.05;;
20421;SDS011;10370;53.102;18.034;2023-05-24T12:53:26;20.08;;;16.15;;
20421;SDS011;10370;53.102;18.034;2023-05-24T12:58:49;23.63;;;16.42;;
20421;SDS011;10370;53.102;18.034;2023-05-24T13:04:15;24.30;;;17.20;;
20421;SDS011;10370;53.102;18.034;2023-05-24T13:09:40;19.33;;;15.77;;
20421;SDS011;10370;53.102;18.034;2023-05-24T13:15:08;19.85;;;16.83;;
20421;SDS011;10370;53.102;18.034;2023-05-24T13:20:33;21.85;;;15.70;;
20421;SDS011;10370;53.102;18.034;2023-05-24T13:25:58;21.27;;;17.25;;
20421;SDS011;10370;53.102;18.034;2023-05-24T13:31:23;20.80;;;16.83;;
20421;SDS011;10370;53.102;18.034;2023-05-24T13:36:48;19.02;;;15.63;;
20421;SDS011;10370;53.102;18.034;2023-05-24T13:42:17;20.48;;;15.25;;
20421;SDS011;10370;53.102;18.034;2023-05-24T13:47:43;21.80;;;16.88;;
20421;SDS011;10370;53.102;18.034;2023-05-24T13:53:10;22.13;;;15.90;;
20421;SDS011;10370;53.102;18.034;2023-05-24T13:58:34;19.92;;;14.65;;
20421;SDS011;10370;53.102;18.034;2023-05-24T14:04:01;19.90;;;15.60;;
20421;SDS011;10370;53.102;18.034;2023-05-24T14:09:28;21.48;;;15.43;;
20421;SDS011;10370;53.102;18.034;2023-05-24T14:14:49;18.30;;;14.68;;
20421;SDS011;10370;53.102;18.034;2023-05-24T14:20:15;29.33;;;15.75;;
20421;SDS011;10370;53.102;18.034;2023-05-24T14:25:37;18.77;;;14.80;;
20421;SDS011;10370;53.102;18.034;2023-05-24T14:31:01;19.48;;;15.93;;
20421;SDS011;10370;53.102;18.034;2023-05-24T14:36:24;21.00;;;15.43;;
20421;SDS011;10370;53.102;18.034;2023-05-24T14:41:52;21.40;;;16.20;;
20421;SDS011;10370;53.102;18.034;2023-05-24T14:47:16;25.40;;;18.17;;
20421;SDS011;10370;53.102;18.034;2023-05-24T14:52:39;22.73;;;16.70;;
20421;SDS011;10370;53.102;18.034;2023-05-24T14:58:05;21.55;;;16.23;;
20421;SDS011;10370;53.102;18.034;2023-05-24T15:03:31;22.85;;;16.08;;
20421;SDS011;10370;53.102;18.034;2023-05-24T15:08:57;26.10;;;16.85;;
20421;SDS011;10370;53.102;18.034;2023-05-24T15:14:23;22.23;;;16.70;;
20421;SDS011;10370;53.102;18.034;2023-05-24T15:19:48;23.27;;;16.92;;
20421;SDS011;10370;53.102;18.034;2023-05-24T15:25:14;24.55;;;17.17;;
20421;SDS011;10370;53.102;18.034;2023-05-24T15:30:39;23.48;;;16.70;;
20421;SDS011;10370;53.102;18.034;2023-05-24T15:36:07;24.13;;;17.90;;
20421;SDS011;10370;53.102;18.034;2023-05-24T15:41:35;21.83;;;15.63;;
20421;SDS011;10370;53.102;18.034;2023-05-24T15:47:10;25.70;;;16.83;;
20421;SDS011;10370;53.102;18.034;2023-05-24T15:52:37;24.70;;;16.10;;
20421;SDS011;10370;53.102;18.034;2023-05-24T15:58:03;23.30;;;16.33;;
20421;SDS011;10370;53.102;18.034;2023-05-24T16:03:24;23.77;;;16.52;;
20421;SDS011;10370;53.102;18.034;2023-05-24T16:08:47;22.83;;;16.05;;
20421;SDS011;10370;53.102;18.034;2023-05-24T16:14:13;28.80;;;17.77;;
20421;SDS011;10370;53.102;18.034;2023-05-24T16:19:35;27.92;;;16.85;;
20421;SDS011;10370;53.102;18.034;2023-05-24T16:24:58;26.40;;;16.90;;
20421;SDS011;10370;53.102;18.034;2023-05-24T16:30:35;25.38;;;15.98;;
20421;SDS011;10370;53.102;18.034;2023-05-24T16:35:56;27.50;;;17.40;;
20421;SDS011;10370;53.102;18.034;2023-05-24T16:41:22;29.60;;;16.55;;
20421;SDS011;10370;53.102;18.034;2023-05-24T16:46:45;29.33;;;15.88;;
20421;SDS011;10370;53.102;18.034;2023-05-24T16:52:08;26.75;;;16.13;;
20421;SDS011;10370;53.102;18.034;2023-05-24T16:57:35;27.52;;;14.48;;
20421;SDS011;10370;53.102;18.034;2023-05-24T17:02:58;23.30;;;14.18;;
20421;SDS011;10370;53.102;18.034;2023-05-24T17:08:22;25.45;;;14.07;;
20421;SDS011;10370;53.102;18.034;2023-05-24T17:13:48;25.38;;;14.50;;
20421;SDS011;10370;53.102;18.034;2023-05-24T17:19:14;27.45;;;15.07;;
20421;SDS011;10370;53.102;18.034;2023-05-24T17:24:40;22.48;;;13.63;;
20421;SDS011;10370;53.102;18.034;2023-05-24T17:30:06;22.45;;;13.45;;
20421;SDS011;10370;53.102;18.034;2023-05-24T17:35:32;19.63;;;12.77;;
20421;SDS011;10370;53.102;18.034;2023-05-24T17:40:57;25.27;;;13.10;;
20421;SDS011;10370;53.102;18.034;2023-05-24T17:46:23;24.58;;;13.07;;
20421;SDS011;10370;53.102;18.034;2023-05-24T17:51:48;26.92;;;14.27;;
20421;SDS011;10370;53.102;18.034;2023-05-24T17:57:13;25.95;;;13.82;;
20421;SDS011;10370;53.102;18.034;2023-05-24T18:02:40;25.63;;;14.68;;
20421;SDS011;10370;53.102;18.034;2023-05-24T18:08:06;30.35;;;15.70;;
20421;SDS011;10370;53.102;18.034;2023-05-24T18:13:28;29.42;;;15.40;;
20421;SDS011;10370;53.102;18.034;2023-05-24T18:18:49;32.53;;;15.77;;
20421;SDS011;10370;53.102;18.034;2023-05-24T18:24:15;32.85;;;15.98;;
20421;SDS011;10370;53.102;18.034;2023-05-24T18:29:36;38.42;;;16.55;;
20421;SDS011;10370;53.102;18.034;2023-05-24T18:34:57;31.73;;;16.70;;
20421;SDS011;10370;53.102;18.034;2023-05-24T18:40:18;33.28;;;16.48;;
20421;SDS011;10370;53.102;18.034;2023-05-24T18:45:44;38.60;;;17.25;;
20421;SDS011;10370;53.102;18.034;2023-05-24T18:51:09;34.03;;;17.42;;
20421;SDS011;10370;53.102;18.034;2023-05-24T18:56:32;36.13;;;17.30;;
20421;SDS011;10370;53.102;18.034;2023-05-24T19:01:58;33.80;;;17.63;;
20421;SDS011;10370;53.102;18.034;2023-05-24T19:07:23;39.92;;;17.42;;
20421;SDS011;10370;53.102;18.034;2023-05-24T19:12:48;39.08;;;18.83;;
20421;SDS011;10370;53.102;18.034;2023-05-24T19:18:11;33.50;;;17.70;;
20421;SDS011;10370;53.102;18.034;2023-05-24T19:23:36;39.47;;;18.25;;
20421;SDS011;10370;53.102;18.034;2023-05-24T19:29:02;36.70;;;18.60;;
20421;SDS011;10370;53.102;18.034;2023-05-24T19:34:28;36.72;;;18.75;;
20421;SDS011;10370;53.102;18.034;2023-05-24T19:39:51;39.45;;;18.08;;
20421;SDS011;10370;53.102;18.034;2023-05-24T19:45:12;35.50;;;18.98;;
20421;SDS011;10370;53.102;18.034;2023-05-24T19:50:45;38.80;;;18.75;;
20421;SDS011;10370;53.102;18.034;2023-05-24T19:56:08;35.28;;;17.17;;
20421;SDS011;10370;53.102;18.034;2023-05-24T20:01:32;40.35;;;19.00;;
20421;SDS011;10370;53.102;18.034;2023-05-24T20:06:56;39.17;;;19.23;;
20421;SDS011;10370;53.102;18.034;2023-05-24T20:12:21;41.33;;;19.67;;
20421;SDS011;10370;53.102;18.034;2023-05-24T20:17:47;44.72;;;20.08;;
20421;SDS011;10370;53.102;18.034;2023-05-24T20:23:12;36.35;;;18.80;;
20421;SDS011;10370;53.102;18.034;2023-05-24T20:28:37;44.70;;;20.00;;
20421;SDS011;10370;53.102;18.034;2023-05-24T20:34:02;34.50;;;19.33;;
20421;SDS011;10370;53.102;18.034;2023-05-24T20:39:27;40.90;;;19.70;;
20421;SDS011;10370;53.102;18.034;2023-05-24T20:44:53;40.08;;;20.42;;
20421;SDS011;10370;53.102;18.034;2023-05-24T20:50:19;40.22;;;20.48;;
20421;SDS011;10370;53.102;18.034;2023-05-24T20:55:42;41.92;;;20.58;;
20421;SDS011;10370;53.102;18.034;2023-05-24T21:01:07;41.30;;;20.80;;
20421;SDS011;10370;53.102;18.034;2023-05-24T21:06:29;39.25;;;20.15;;
20421;SDS011;10370;53.102;18.034;2023-05-24T21:11:56;41.65;;;21.13;;
20421;SDS011;10370;53.102;18.034;2023-05-24T21:17:21;40.30;;;20.55;;
20421;SDS011;10370;53.102;18.034;2023-05-24T21:22:47;39.65;;;21.23;;
20421;SDS011;10370;53.102;18.034;2023-05-24T21:28:12;39.22;;;21.45;;
20421;SDS011;10370;53.102;18.034;2023-05-24T21:33:37;43.30;;;21.13;;
20421;SDS011;10370;53.102;18.034;2023-05-24T21:39:08;38.33;;;20.08;;
20421;SDS011;10370;53.102;18.034;2023-05-24T21:44:32;42.78;;;21.25;;
20421;SDS011;10370;53.102;18.034;2023-05-24T21:50:02;42.83;;;21.13;;
20421;SDS011;10370;53.102;18.034;2023-05-24T21:55:28;41.50;;;20.02;;
20421;SDS011;10370;53.102;18.034;2023-05-24T22:00:51;36.53;;;20.95;;
20421;SDS011;10370;53.102;18.034;2023-05-24T22:06:19;40.70;;;21.27;;
20421;SDS011;10370;53.102;18.034;2023-05-24T22:11:45;40.38;;;20.00;;
20421;SDS011;10370;53.102;18.034;2023-05-24T22:17:10;39.35;;;20.35;;
20421;SDS011;10370;53.102;18.034;2023-05-24T22:22:36;38.70;;;21.23;;
20421;SDS011;10370;53.102;18.034;2023-05-24T22:28:00;38.70;;;20.50;;
20421;SDS011;10370;53.102;18.034;2023-05-24T22:33:27;38.03;;;20.60;;
20421;SDS011;10370;53.102;18.034;2023-05-24T22:38:55;39.55;;;20.83;;
20421;SDS011;10370;53.102;18.034;2023-05-24T22:44:24;39.40;;;20.85;;
20421;SDS011;10370;53.102;18.034;2023-05-24T22:49:49;45.03;;;22.55;;
20421;SDS011;10370;53.102;18.034;2023-05-24T22:55:17;42.45;;;22.25;;
20421;SDS011;10370;53.102;18.034;2023-05-24T23:00:45;41.28;;;22.67;;
20421;SDS011;10370;53.102;18.034;2023-05-24T23:06:09;42.15;;;23.02;;
20421;SDS011;10370;53.102;18.034;2023-05-24T23:11:34;42.67;;;24.42;;
20421;SDS011;10370;53.102;18.034;2023-05-24T23:16:59;44.35;;;24.80;;
20421;SDS011;10370;53.102;18.034;2023-05-24T23:22:24;43.03;;;24.40;;
20421;SDS011;10370;53.102;18.034;2023-05-24T23:27:54;43.90;;;24.42;;
20421;SDS011;10370;53.102;18.034;2023-05-24T23:33:19;40.55;;;22.38;;
20421;SDS011;10370;53.102;18.034;2023-05-24T23:38:47;38.80;;;20.75;;
20421;SDS011;10370;53.102;18.034;2023-05-24T23:44:13;37.95;;;20.92;;
20421;SDS011;10370;53.102;18.034;2023-05-24T23:49:39;38.53;;;21.55;;
20421;SDS011;10370;53.102;18.034;2023-05-24T23:55:04;35.75;;;18.88;;
